Davenport, WA

5:45 PM PDT on August 27, 2014 (GMT -0700)
Davenport, WA | Change Station
CLOSE
Current Station
Personal Weather Station
Location: Davenport, WA
Elevation: 2375 ft
Nearby Weather Stations

Elev 2375 ft 47.65 °N, 118.15 °W | Updated 1 minute ago

Clear
Clear
91.8 °F
Feels Like 89 °F
N
4.2
Wind Variable Wind from SE

Today
High -- | Low -- °F
--% Chance of Precip.
Yesterday
High -- | Low -- °F
Precip. -- in
6:04 AM 7:42 PM
Waxing Crescent, 5% visible
Pressure 29.94 in
Visibility 10.0 miles
Clouds Clear
Heat Index 89 °F
Dew Point 49 °F
Humidity 23%
Rainfall 0.00 in
Snow Depth Not available.
UV 2 out of 12
Pollen 7.70 out of 12
PM2.5 Good
Flu Activity Not available.
METAR KSKA 272358Z AUTO 21007KT 10SM CLR 31/07 A2998 RMK AO2 SLP139 60000 T03120069 10315 20275 403150144 57016

More Conditions Fewer Conditions

Pressure 29.94 in
Visibility 10.0 miles
Clouds Clear
Heat Index 89 °F
Dew Point 49 °F
Humidity 23%
Rainfall 0.00 in
Snow Depth Not available.
UV 2 out of 12
Pollen 7.70 out of 12
PM2.5 Good
Flu Activity Not available.
METAR KSKA 272358Z AUTO 21007KT 10SM CLR 31/07 A2998 RMK AO2 SLP139 60000 T03120069 10315 20275 403150144 57016

More Conditions Fewer Conditions

10-Day Weather Forecast

Almanac

Astronomy

Aug. 27, 2014 Rise Set
Actual Time 6:04 AM PDT 7:42 PM PDT
Civil Twilight 5:32 AM PDT 8:14 PM PDT
Nautical Twilight 4:52 AM PDT 8:54 PM PDT
Astronomical Twilight 4:09 AM PDT 9:37 PM PDT
Moon 8:16 AM PDT (8/27) 8:23 PM PDT (8/27)
Length of Visible Light 14h 42m
Length of Day
13h 38m
Tomorrow will be 3m 16s shorter.
Waxing Crescent, 5% of the Moon is Illuminated
Today
Waxing Crescent
Sep 2
First Quarter
Sep 8
Full
Sep 15
Last Quarter
Sep 24
New

Today's Extremes

State Highs State Lows

Community

WunderPhotos

Upload Photos

1,747,837 photos uploaded!

Nearby

Air Quality

  Air Quality AQ Index Pollutant
Yesterday Good
PM10
Yesterday Good
OZONE
Current Good
PM2.5
Wednesday Good
PM10
Wednesday Good
OZONE
Thursday Good
PM10
Thursday Good
OZONE

Snow Depth

Station Depth Elevation
Quartz Peak 0 in 4700 ft
Moses Mountain 0 in 5300 ft
Trough 0 in 5300 ft
Spruce Springs 0 in 5700 ft
Grouse Camp 0 in 5380 ft

Earthquake Activity

City Distance Mag. Time & Date
No recent earthquake activity has been reported nearby.
Minimum magnitude displayed is 2.5.

Coastal Water Temperatures

Place Temperature
No Stations Reporting

Nearby Weather Stations